sensor_id;sensor_type;location;lat;lon;timestamp;P1;durP1;ratioP1;P2;durP2;ratioP2
10170;SDS011;5127;50.922;6.988;2024-03-29T00:01:16;0.70;;;0.70;;
10170;SDS011;5127;50.922;6.988;2024-03-29T00:03:42;1.23;;;0.80;;
10170;SDS011;5127;50.922;6.988;2024-03-29T00:06:09;1.53;;;0.67;;
10170;SDS011;5127;50.922;6.988;2024-03-29T00:08:35;1.67;;;0.80;;
10170;SDS011;5127;50.922;6.988;2024-03-29T00:11:03;1.13;;;0.70;;
10170;SDS011;5127;50.922;6.988;2024-03-29T00:13:29;1.03;;;0.80;;
10170;SDS011;5127;50.922;6.988;2024-03-29T00:15:57;3.10;;;0.83;;
10170;SDS011;5127;50.922;6.988;2024-03-29T00:18:23;1.93;;;0.77;;
10170;SDS011;5127;50.922;6.988;2024-03-29T00:20:50;1.87;;;0.80;;
10170;SDS011;5127;50.922;6.988;2024-03-29T00:23:16;1.40;;;0.97;;
10170;SDS011;5127;50.922;6.988;2024-03-29T00:25:42;1.67;;;0.80;;
10170;SDS011;5127;50.922;6.988;2024-03-29T00:28:09;2.47;;;0.57;;
10170;SDS011;5127;50.922;6.988;2024-03-29T00:30:35;1.27;;;0.70;;
10170;SDS011;5127;50.922;6.988;2024-03-29T00:33:03;1.97;;;0.70;;
10170;SDS011;5127;50.922;6.988;2024-03-29T00:35:30;2.10;;;0.73;;
10170;SDS011;5127;50.922;6.988;2024-03-29T00:37:56;0.97;;;0.47;;
10170;SDS011;5127;50.922;6.988;2024-03-29T00:40:24;1.87;;;0.60;;
10170;SDS011;5127;50.922;6.988;2024-03-29T00:42:50;1.10;;;0.63;;
10170;SDS011;5127;50.922;6.988;2024-03-29T00:45:17;2.63;;;0.70;;
10170;SDS011;5127;50.922;6.988;2024-03-29T00:47:43;0.97;;;0.60;;
10170;SDS011;5127;50.922;6.988;2024-03-29T00:50:11;0.93;;;0.60;;
10170;SDS011;5127;50.922;6.988;2024-03-29T00:52:37;2.03;;;0.60;;
10170;SDS011;5127;50.922;6.988;2024-03-29T00:55:03;1.20;;;0.60;;
10170;SDS011;5127;50.922;6.988;2024-03-29T00:57:30;1.13;;;0.70;;
10170;SDS011;5127;50.922;6.988;2024-03-29T00:59:57;1.33;;;0.57;;
10170;SDS011;5127;50.922;6.988;2024-03-29T01:02:23;1.53;;;0.40;;
10170;SDS011;5127;50.922;6.988;2024-03-29T01:04:49;1.03;;;0.50;;
10170;SDS011;5127;50.922;6.988;2024-03-29T01:07:17;1.40;;;0.63;;
10170;SDS011;5127;50.922;6.988;2024-03-29T01:09:44;1.53;;;0.50;;
10170;SDS011;5127;50.922;6.988;2024-03-29T01:12:10;0.93;;;0.50;;
10170;SDS011;5127;50.922;6.988;2024-03-29T01:14:37;0.77;;;0.50;;
10170;SDS011;5127;50.922;6.988;2024-03-29T01:17:03;1.47;;;0.77;;
10170;SDS011;5127;50.922;6.988;2024-03-29T01:19:30;1.87;;;0.53;;
10170;SDS011;5127;50.922;6.988;2024-03-29T01:21:56;1.00;;;0.70;;
10170;SDS011;5127;50.922;6.988;2024-03-29T01:24:24;2.50;;;0.80;;
10170;SDS011;5127;50.922;6.988;2024-03-29T01:26:50;1.80;;;0.80;;
10170;SDS011;5127;50.922;6.988;2024-03-29T01:29:17;1.60;;;0.67;;
10170;SDS011;5127;50.922;6.988;2024-03-29T01:31:43;1.17;;;0.53;;
10170;SDS011;5127;50.922;6.988;2024-03-29T01:34:10;3.43;;;0.83;;
10170;SDS011;5127;50.922;6.988;2024-03-29T01:36:36;1.17;;;0.60;;
10170;SDS011;5127;50.922;6.988;2024-03-29T01:39:02;2.27;;;0.70;;
10170;SDS011;5127;50.922;6.988;2024-03-29T01:41:30;0.87;;;0.60;;
10170;SDS011;5127;50.922;6.988;2024-03-29T01:43:56;2.57;;;0.60;;
10170;SDS011;5127;50.922;6.988;2024-03-29T01:46:24;2.10;;;0.70;;
10170;SDS011;5127;50.922;6.988;2024-03-29T01:48:52;0.83;;;0.63;;
10170;SDS011;5127;50.922;6.988;2024-03-29T01:51:20;1.30;;;0.63;;
10170;SDS011;5127;50.922;6.988;2024-03-29T01:53:48;1.53;;;0.57;;
10170;SDS011;5127;50.922;6.988;2024-03-29T01:56:18;1.30;;;0.70;;
10170;SDS011;5127;50.922;6.988;2024-03-29T01:58:49;3.30;;;0.70;;
10170;SDS011;5127;50.922;6.988;2024-03-29T02:01:19;0.67;;;0.50;;
10170;SDS011;5127;50.922;6.988;2024-03-29T02:03:48;1.27;;;0.70;;
10170;SDS011;5127;50.922;6.988;2024-03-29T02:06:17;1.53;;;0.60;;
10170;SDS011;5127;50.922;6.988;2024-03-29T02:08:44;0.93;;;0.50;;
10170;SDS011;5127;50.922;6.988;2024-03-29T02:11:12;2.17;;;0.80;;
10170;SDS011;5127;50.922;6.988;2024-03-29T02:13:39;1.90;;;0.70;;
10170;SDS011;5127;50.922;6.988;2024-03-29T02:16:08;1.87;;;0.70;;
10170;SDS011;5127;50.922;6.988;2024-03-29T02:18:35;1.03;;;0.50;;
10170;SDS011;5127;50.922;6.988;2024-03-29T02:21:03;3.03;;;0.70;;
10170;SDS011;5127;50.922;6.988;2024-03-29T02:23:32;1.00;;;0.60;;
10170;SDS011;5127;50.922;6.988;2024-03-29T02:26:04;1.37;;;0.77;;
10170;SDS011;5127;50.922;6.988;2024-03-29T02:28:31;2.93;;;0.80;;
10170;SDS011;5127;50.922;6.988;2024-03-29T02:30:58;1.20;;;0.60;;
10170;SDS011;5127;50.922;6.988;2024-03-29T02:33:24;1.50;;;0.80;;
10170;SDS011;5127;50.922;6.988;2024-03-29T02:35:52;1.40;;;0.60;;
10170;SDS011;5127;50.922;6.988;2024-03-29T02:38:19;2.50;;;0.90;;
10170;SDS011;5127;50.922;6.988;2024-03-29T02:40:46;2.33;;;0.80;;
10170;SDS011;5127;50.922;6.988;2024-03-29T02:43:15;2.00;;;0.70;;
10170;SDS011;5127;50.922;6.988;2024-03-29T02:45:42;1.10;;;0.60;;
10170;SDS011;5127;50.922;6.988;2024-03-29T02:48:10;0.93;;;0.40;;
10170;SDS011;5127;50.922;6.988;2024-03-29T02:50:36;1.63;;;0.77;;
10170;SDS011;5127;50.922;6.988;2024-03-29T02:53:03;1.23;;;0.73;;
10170;SDS011;5127;50.922;6.988;2024-03-29T02:55:29;1.90;;;0.90;;
10170;SDS011;5127;50.922;6.988;2024-03-29T02:57:57;3.73;;;1.10;;
10170;SDS011;5127;50.922;6.988;2024-03-29T03:00:24;2.47;;;0.87;;
10170;SDS011;5127;50.922;6.988;2024-03-29T03:02:51;1.60;;;0.90;;
10170;SDS011;5127;50.922;6.988;2024-03-29T03:05:18;1.23;;;0.60;;
10170;SDS011;5127;50.922;6.988;2024-03-29T03:07:45;0.83;;;0.80;;
10170;SDS011;5127;50.922;6.988;2024-03-29T03:10:30;2.10;;;0.80;;
10170;SDS011;5127;50.922;6.988;2024-03-29T03:13:15;1.97;;;0.80;;
10170;SDS011;5127;50.922;6.988;2024-03-29T03:15:44;2.17;;;0.73;;
10170;SDS011;5127;50.922;6.988;2024-03-29T03:18:11;1.33;;;0.67;;
10170;SDS011;5127;50.922;6.988;2024-03-29T03:20:37;1.77;;;0.67;;
10170;SDS011;5127;50.922;6.988;2024-03-29T03:23:05;1.43;;;0.53;;
10170;SDS011;5127;50.922;6.988;2024-03-29T03:25:31;2.00;;;0.70;;
10170;SDS011;5127;50.922;6.988;2024-03-29T03:27:59;1.47;;;0.60;;
10170;SDS011;5127;50.922;6.988;2024-03-29T03:30:25;1.23;;;0.60;;
10170;SDS011;5127;50.922;6.988;2024-03-29T03:32:53;1.23;;;0.60;;
10170;SDS011;5127;50.922;6.988;2024-03-29T03:35:20;0.93;;;0.60;;
10170;SDS011;5127;50.922;6.988;2024-03-29T03:37:47;1.23;;;0.73;;
10170;SDS011;5127;50.922;6.988;2024-03-29T03:40:14;1.80;;;0.73;;
10170;SDS011;5127;50.922;6.988;2024-03-29T03:42:42;1.00;;;0.60;;
10170;SDS011;5127;50.922;6.988;2024-03-29T03:45:08;1.33;;;0.90;;
10170;SDS011;5127;50.922;6.988;2024-03-29T03:47:35;0.90;;;0.60;;
10170;SDS011;5127;50.922;6.988;2024-03-29T03:50:03;1.57;;;0.60;;
10170;SDS011;5127;50.922;6.988;2024-03-29T03:52:31;1.13;;;0.63;;
10170;SDS011;5127;50.922;6.988;2024-03-29T03:54:57;2.03;;;0.97;;
10170;SDS011;5127;50.922;6.988;2024-03-29T03:57:25;2.30;;;0.67;;
10170;SDS011;5127;50.922;6.988;2024-03-29T03:59:51;1.40;;;0.80;;
10170;SDS011;5127;50.922;6.988;2024-03-29T04:02:18;1.57;;;0.60;;
10170;SDS011;5127;50.922;6.988;2024-03-29T04:04:47;2.00;;;0.70;;
10170;SDS011;5127;50.922;6.988;2024-03-29T04:07:16;2.13;;;0.67;;
10170;SDS011;5127;50.922;6.988;2024-03-29T04:09:42;1.67;;;0.80;;
10170;SDS011;5127;50.922;6.988;2024-03-29T04:12:10;1.23;;;0.60;;
10170;SDS011;5127;50.922;6.988;2024-03-29T04:14:36;1.90;;;0.93;;
10170;SDS011;5127;50.922;6.988;2024-03-29T04:17:03;0.70;;;0.70;;
10170;SDS011;5127;50.922;6.988;2024-03-29T04:19:29;1.83;;;0.67;;
10170;SDS011;5127;50.922;6.988;2024-03-29T04:21:57;1.90;;;0.63;;
10170;SDS011;5127;50.922;6.988;2024-03-29T04:24:25;1.67;;;0.90;;
10170;SDS011;5127;50.922;6.988;2024-03-29T04:26:52;2.33;;;0.93;;
10170;SDS011;5127;50.922;6.988;2024-03-29T04:29:18;2.40;;;0.70;;
10170;SDS011;5127;50.922;6.988;2024-03-29T04:31:45;1.47;;;0.80;;
10170;SDS011;5127;50.922;6.988;2024-03-29T04:34:11;1.57;;;0.80;;
10170;SDS011;5127;50.922;6.988;2024-03-29T04:36:39;0.97;;;0.70;;
10170;SDS011;5127;50.922;6.988;2024-03-29T04:39:06;2.07;;;0.60;;
10170;SDS011;5127;50.922;6.988;2024-03-29T04:41:35;1.97;;;0.67;;
10170;SDS011;5127;50.922;6.988;2024-03-29T04:44:02;1.00;;;0.90;;
10170;SDS011;5127;50.922;6.988;2024-03-29T04:46:30;2.00;;;0.90;;
10170;SDS011;5127;50.922;6.988;2024-03-29T04:48:57;1.13;;;0.70;;
10170;SDS011;5127;50.922;6.988;2024-03-29T04:51:25;3.50;;;0.90;;
10170;SDS011;5127;50.922;6.988;2024-03-29T04:53:52;1.50;;;0.67;;
10170;SDS011;5127;50.922;6.988;2024-03-29T04:56:19;1.27;;;0.70;;
10170;SDS011;5127;50.922;6.988;2024-03-29T04:58:47;1.40;;;0.73;;
10170;SDS011;5127;50.922;6.988;2024-03-29T05:01:14;1.10;;;0.70;;
10170;SDS011;5127;50.922;6.988;2024-03-29T05:03:41;1.20;;;0.90;;
10170;SDS011;5127;50.922;6.988;2024-03-29T05:06:08;0.73;;;0.60;;
10170;SDS011;5127;50.922;6.988;2024-03-29T05:08:36;2.53;;;0.80;;
10170;SDS011;5127;50.922;6.988;2024-03-29T05:11:03;0.87;;;0.60;;
10170;SDS011;5127;50.922;6.988;2024-03-29T05:13:31;1.60;;;0.77;;
10170;SDS011;5127;50.922;6.988;2024-03-29T05:15:59;2.10;;;0.80;;
10170;SDS011;5127;50.922;6.988;2024-03-29T05:18:27;0.80;;;0.60;;
10170;SDS011;5127;50.922;6.988;2024-03-29T05:20:54;1.07;;;0.87;;
10170;SDS011;5127;50.922;6.988;2024-03-29T05:23:20;1.23;;;0.63;;
10170;SDS011;5127;50.922;6.988;2024-03-29T05:25:47;1.97;;;0.70;;
10170;SDS011;5127;50.922;6.988;2024-03-29T05:28:15;1.03;;;0.80;;
10170;SDS011;5127;50.922;6.988;2024-03-29T05:30:43;1.17;;;0.60;;
10170;SDS011;5127;50.922;6.988;2024-03-29T05:33:11;1.60;;;0.80;;
10170;SDS011;5127;50.922;6.988;2024-03-29T05:35:39;1.33;;;0.70;;
10170;SDS011;5127;50.922;6.988;2024-03-29T05:38:06;1.70;;;0.67;;
10170;SDS011;5127;50.922;6.988;2024-03-29T05:40:33;1.47;;;0.87;;
10170;SDS011;5127;50.922;6.988;2024-03-29T05:43:00;2.40;;;0.57;;
10170;SDS011;5127;50.922;6.988;2024-03-29T05:45:28;0.97;;;0.70;;
10170;SDS011;5127;50.922;6.988;2024-03-29T05:47:56;2.70;;;0.93;;
10170;SDS011;5127;50.922;6.988;2024-03-29T05:50:27;1.40;;;0.73;;
10170;SDS011;5127;50.922;6.988;2024-03-29T05:52:54;2.07;;;1.10;;
10170;SDS011;5127;50.922;6.988;2024-03-29T05:55:22;1.63;;;0.87;;
10170;SDS011;5127;50.922;6.988;2024-03-29T05:57:49;3.40;;;0.70;;
10170;SDS011;5127;50.922;6.988;2024-03-29T06:00:16;2.60;;;0.80;;
10170;SDS011;5127;50.922;6.988;2024-03-29T06:02:43;1.73;;;0.70;;
10170;SDS011;5127;50.922;6.988;2024-03-29T06:05:11;1.67;;;1.00;;
10170;SDS011;5127;50.922;6.988;2024-03-29T06:07:40;1.37;;;0.80;;
10170;SDS011;5127;50.922;6.988;2024-03-29T06:10:08;2.37;;;0.80;;
10170;SDS011;5127;50.922;6.988;2024-03-29T06:12:36;1.57;;;0.70;;
10170;SDS011;5127;50.922;6.988;2024-03-29T06:15:04;1.27;;;0.70;;
10170;SDS011;5127;50.922;6.988;2024-03-29T06:17:50;1.57;;;0.90;;
10170;SDS011;5127;50.922;6.988;2024-03-29T06:20:17;1.47;;;0.90;;
10170;SDS011;5127;50.922;6.988;2024-03-29T06:22:46;2.10;;;1.37;;
10170;SDS011;5127;50.922;6.988;2024-03-29T06:25:13;2.20;;;1.03;;
10170;SDS011;5127;50.922;6.988;2024-03-29T06:27:41;1.40;;;0.83;;
10170;SDS011;5127;50.922;6.988;2024-03-29T06:30:13;1.63;;;0.77;;
10170;SDS011;5127;50.922;6.988;2024-03-29T06:32:42;1.53;;;0.93;;
10170;SDS011;5127;50.922;6.988;2024-03-29T06:35:10;0.77;;;0.77;;
10170;SDS011;5127;50.922;6.988;2024-03-29T06:37:38;0.90;;;0.80;;
10170;SDS011;5127;50.922;6.988;2024-03-29T06:40:07;0.83;;;0.70;;
10170;SDS011;5127;50.922;6.988;2024-03-29T06:42:35;1.20;;;0.70;;
10170;SDS011;5127;50.922;6.988;2024-03-29T06:45:03;2.70;;;1.00;;
10170;SDS011;5127;50.922;6.988;2024-03-29T06:47:31;0.90;;;0.80;;
10170;SDS011;5127;50.922;6.988;2024-03-29T06:49:58;1.43;;;0.70;;
10170;SDS011;5127;50.922;6.988;2024-03-29T06:52:25;2.00;;;0.80;;
10170;SDS011;5127;50.922;6.988;2024-03-29T06:54:53;1.43;;;0.80;;
10170;SDS011;5127;50.922;6.988;2024-03-29T06:57:22;1.97;;;1.00;;
10170;SDS011;5127;50.922;6.988;2024-03-29T06:59:51;1.73;;;0.90;;
10170;SDS011;5127;50.922;6.988;2024-03-29T07:02:19;1.93;;;1.07;;
10170;SDS011;5127;50.922;6.988;2024-03-29T07:04:46;1.30;;;0.80;;
10170;SDS011;5127;50.922;6.988;2024-03-29T07:07:13;2.13;;;1.10;;
10170;SDS011;5127;50.922;6.988;2024-03-29T07:09:41;3.23;;;1.00;;
10170;SDS011;5127;50.922;6.988;2024-03-29T07:12:08;1.27;;;0.87;;
10170;SDS011;5127;50.922;6.988;2024-03-29T07:14:37;1.07;;;0.90;;
10170;SDS011;5127;50.922;6.988;2024-03-29T07:17:04;1.53;;;0.87;;
10170;SDS011;5127;50.922;6.988;2024-03-29T07:19:31;0.93;;;0.90;;
10170;SDS011;5127;50.922;6.988;2024-03-29T07:21:58;1.63;;;0.70;;
10170;SDS011;5127;50.922;6.988;2024-03-29T07:24:26;1.20;;;0.80;;
10170;SDS011;5127;50.922;6.988;2024-03-29T07:26:53;1.37;;;0.90;;
10170;SDS011;5127;50.922;6.988;2024-03-29T07:29:20;0.90;;;0.70;;
10170;SDS011;5127;50.922;6.988;2024-03-29T07:31:49;1.87;;;0.87;;
10170;SDS011;5127;50.922;6.988;2024-03-29T07:34:16;2.10;;;1.00;;
10170;SDS011;5127;50.922;6.988;2024-03-29T07:36:43;1.60;;;0.90;;
10170;SDS011;5127;50.922;6.988;2024-03-29T07:39:11;1.63;;;0.80;;
10170;SDS011;5127;50.922;6.988;2024-03-29T07:41:38;1.33;;;0.77;;
10170;SDS011;5127;50.922;6.988;2024-03-29T07:44:05;1.33;;;0.70;;
10170;SDS011;5127;50.922;6.988;2024-03-29T07:46:34;1.40;;;0.80;;
10170;SDS011;5127;50.922;6.988;2024-03-29T07:49:04;1.93;;;0.73;;
10170;SDS011;5127;50.922;6.988;2024-03-29T07:51:31;0.50;;;0.50;;
10170;SDS011;5127;50.922;6.988;2024-03-29T07:53:58;0.60;;;0.50;;
10170;SDS011;5127;50.922;6.988;2024-03-29T07:56:25;0.63;;;0.63;;
10170;SDS011;5127;50.922;6.988;2024-03-29T07:58:53;0.70;;;0.50;;
10170;SDS011;5127;50.922;6.988;2024-03-29T08:01:21;1.07;;;0.50;;
10170;SDS011;5127;50.922;6.988;2024-03-29T08:03:49;0.60;;;0.43;;
10170;SDS011;5127;50.922;6.988;2024-03-29T08:06:20;1.03;;;0.40;;
10170;SDS011;5127;50.922;6.988;2024-03-29T08:08:49;0.40;;;0.40;;
10170;SDS011;5127;50.922;6.988;2024-03-29T08:11:16;1.07;;;0.50;;
10170;SDS011;5127;50.922;6.988;2024-03-29T08:13:44;0.70;;;0.60;;
10170;SDS011;5127;50.922;6.988;2024-03-29T08:16:11;0.43;;;0.40;;
10170;SDS011;5127;50.922;6.988;2024-03-29T08:18:38;0.30;;;0.30;;
10170;SDS011;5127;50.922;6.988;2024-03-29T08:21:06;1.87;;;0.60;;
10170;SDS011;5127;50.922;6.988;2024-03-29T08:23:39;0.47;;;0.47;;
10170;SDS011;5127;50.922;6.988;2024-03-29T08:26:07;0.50;;;0.50;;
10170;SDS011;5127;50.922;6.988;2024-03-29T08:28:34;1.33;;;0.70;;
10170;SDS011;5127;50.922;6.988;2024-03-29T08:31:03;0.80;;;0.60;;
10170;SDS011;5127;50.922;6.988;2024-03-29T08:33:33;0.53;;;0.50;;
10170;SDS011;5127;50.922;6.988;2024-03-29T08:36:03;0.70;;;0.50;;
10170;SDS011;5127;50.922;6.988;2024-03-29T08:38:31;0.50;;;0.40;;
10170;SDS011;5127;50.922;6.988;2024-03-29T08:40:59;1.03;;;0.60;;
10170;SDS011;5127;50.922;6.988;2024-03-29T08:43:26;0.87;;;0.50;;
10170;SDS011;5127;50.922;6.988;2024-03-29T08:45:54;0.83;;;0.50;;
10170;SDS011;5127;50.922;6.988;2024-03-29T08:48:22;0.97;;;0.60;;
10170;SDS011;5127;50.922;6.988;2024-03-29T08:50:49;1.27;;;0.70;;
10170;SDS011;5127;50.922;6.988;2024-03-29T08:53:17;1.00;;;0.70;;
10170;SDS011;5127;50.922;6.988;2024-03-29T08:55:45;0.83;;;0.73;;
10170;SDS011;5127;50.922;6.988;2024-03-29T08:58:15;0.70;;;0.60;;
10170;SDS011;5127;50.922;6.988;2024-03-29T09:00:51;0.53;;;0.53;;
10170;SDS011;5127;50.922;6.988;2024-03-29T09:03:19;1.10;;;0.90;;
10170;SDS011;5127;50.922;6.988;2024-03-29T09:05:46;0.90;;;0.90;;
10170;SDS011;5127;50.922;6.988;2024-03-29T09:08:14;1.53;;;1.00;;
10170;SDS011;5127;50.922;6.988;2024-03-29T09:10:41;1.23;;;1.00;;
10170;SDS011;5127;50.922;6.988;2024-03-29T09:13:08;1.33;;;0.80;;
10170;SDS011;5127;50.922;6.988;2024-03-29T09:15:37;1.07;;;0.80;;
10170;SDS011;5127;50.922;6.988;2024-03-29T09:18:05;1.30;;;0.80;;
10170;SDS011;5127;50.922;6.988;2024-03-29T09:20:42;1.13;;;0.53;;
10170;SDS011;5127;50.922;6.988;2024-03-29T09:23:10;1.03;;;0.60;;
10170;SDS011;5127;50.922;6.988;2024-03-29T09:25:42;0.50;;;0.43;;
10170;SDS011;5127;50.922;6.988;2024-03-29T09:28:10;0.90;;;0.60;;
10170;SDS011;5127;50.922;6.988;2024-03-29T09:30:38;0.73;;;0.70;;
10170;SDS011;5127;50.922;6.988;2024-03-29T09:33:05;0.93;;;0.60;;
10170;SDS011;5127;50.922;6.988;2024-03-29T09:35:35;0.73;;;0.60;;
10170;SDS011;5127;50.922;6.988;2024-03-29T09:38:03;0.50;;;0.50;;
10170;SDS011;5127;50.922;6.988;2024-03-29T09:40:30;0.80;;;0.50;;
10170;SDS011;5127;50.922;6.988;2024-03-29T09:42:59;0.50;;;0.50;;
10170;SDS011;5127;50.922;6.988;2024-03-29T09:45:29;1.10;;;0.60;;
10170;SDS011;5127;50.922;6.988;2024-03-29T09:48:02;0.80;;;0.80;;
10170;SDS011;5127;50.922;6.988;2024-03-29T09:50:31;0.70;;;0.70;;
10170;SDS011;5127;50.922;6.988;2024-03-29T09:53:00;2.15;;;0.77;;
10170;SDS011;5127;50.922;6.988;2024-03-29T09:55:28;0.60;;;0.50;;
10170;SDS011;5127;50.922;6.988;2024-03-29T09:57:56;0.70;;;0.50;;
10170;SDS011;5127;50.922;6.988;2024-03-29T10:00:25;0.60;;;0.47;;
10170;SDS011;5127;50.922;6.988;2024-03-29T10:02:55;0.40;;;0.40;;
10170;SDS011;5127;50.922;6.988;2024-03-29T10:05:24;0.38;;;0.30;;
10170;SDS011;5127;50.922;6.988;2024-03-29T10:07:53;0.68;;;0.52;;
10170;SDS011;5127;50.922;6.988;2024-03-29T10:10:21;0.68;;;0.60;;
10170;SDS011;5127;50.922;6.988;2024-03-29T10:12:49;0.93;;;0.63;;
10170;SDS011;5127;50.922;6.988;2024-03-29T10:15:16;0.70;;;0.70;;
10170;SDS011;5127;50.922;6.988;2024-03-29T10:17:46;0.70;;;0.50;;
10170;SDS011;5127;50.922;6.988;2024-03-29T10:20:15;1.08;;;0.65;;
10170;SDS011;5127;50.922;6.988;2024-03-29T10:22:45;0.43;;;0.40;;
10170;SDS011;5127;50.922;6.988;2024-03-29T10:25:13;0.82;;;0.50;;
10170;SDS011;5127;50.922;6.988;2024-03-29T10:27:40;0.57;;;0.40;;
10170;SDS011;5127;50.922;6.988;2024-03-29T10:30:08;1.67;;;0.55;;
10170;SDS011;5127;50.922;6.988;2024-03-29T10:32:37;0.52;;;0.50;;
10170;SDS011;5127;50.922;6.988;2024-03-29T10:35:05;0.63;;;0.40;;
10170;SDS011;5127;50.922;6.988;2024-03-29T10:37:34;0.80;;;0.50;;
10170;SDS011;5127;50.922;6.988;2024-03-29T10:40:07;0.73;;;0.45;;
10170;SDS011;5127;50.922;6.988;2024-03-29T10:42:36;1.10;;;0.40;;
10170;SDS011;5127;50.922;6.988;2024-03-29T10:45:04;1.00;;;0.63;;
10170;SDS011;5127;50.922;6.988;2024-03-29T10:47:33;0.95;;;0.50;;
10170;SDS011;5127;50.922;6.988;2024-03-29T10:50:01;0.98;;;0.40;;
10170;SDS011;5127;50.922;6.988;2024-03-29T10:52:31;0.80;;;0.38;;
10170;SDS011;5127;50.922;6.988;2024-03-29T10:54:58;0.60;;;0.40;;
10170;SDS011;5127;50.922;6.988;2024-03-29T10:57:27;1.33;;;0.40;;
10170;SDS011;5127;50.922;6.988;2024-03-29T11:00:00;0.40;;;0.38;;
10170;SDS011;5127;50.922;6.988;2024-03-29T11:02:32;0.50;;;0.30;;
10170;SDS011;5127;50.922;6.988;2024-03-29T11:05:06;1.60;;;0.40;;
10170;SDS011;5127;50.922;6.988;2024-03-29T11:07:39;1.13;;;0.40;;
10170;SDS011;5127;50.922;6.988;2024-03-29T11:10:11;0.47;;;0.30;;
10170;SDS011;5127;50.922;6.988;2024-03-29T11:12:45;0.38;;;0.30;;
10170;SDS011;5127;50.922;6.988;2024-03-29T11:15:22;0.73;;;0.30;;
10170;SDS011;5127;50.922;6.988;2024-03-29T11:17:55;0.90;;;0.32;;
10170;SDS011;5127;50.922;6.988;2024-03-29T11:20:26;0.75;;;0.30;;
10170;SDS011;5127;50.922;6.988;2024-03-29T11:23:01;1.08;;;0.40;;
10170;SDS011;5127;50.922;6.988;2024-03-29T11:25:41;1.23;;;0.38;;
10170;SDS011;5127;50.922;6.988;2024-03-29T11:28:11;0.35;;;0.32;;
10170;SDS011;5127;50.922;6.988;2024-03-29T11:30:41;0.30;;;0.25;;
10170;SDS011;5127;50.922;6.988;2024-03-29T11:33:25;0.50;;;0.35;;
10170;SDS011;5127;50.922;6.988;2024-03-29T11:35:56;0.57;;;0.30;;
10170;SDS011;5127;50.922;6.988;2024-03-29T11:38:33;0.20;;;0.20;;
10170;SDS011;5127;50.922;6.988;2024-03-29T11:41:02;0.30;;;0.30;;
10170;SDS011;5127;50.922;6.988;2024-03-29T11:43:31;0.60;;;0.22;;
10170;SDS011;5127;50.922;6.988;2024-03-29T11:45:59;0.20;;;0.20;;
10170;SDS011;5127;50.922;6.988;2024-03-29T11:48:29;0.20;;;0.20;;
10170;SDS011;5127;50.922;6.988;2024-03-29T11:50:58;0.30;;;0.30;;
10170;SDS011;5127;50.922;6.988;2024-03-29T11:53:26;0.30;;;0.30;;
10170;SDS011;5127;50.922;6.988;2024-03-29T11:55:55;0.20;;;0.20;;
10170;SDS011;5127;50.922;6.988;2024-03-29T11:58:24;0.13;;;0.13;;
10170;SDS011;5127;50.922;6.988;2024-03-29T12:00:54;0.28;;;0.28;;
10170;SDS011;5127;50.922;6.988;2024-03-29T12:03:25;2.22;;;0.30;;
10170;SDS011;5127;50.922;6.988;2024-03-29T12:05:53;0.45;;;0.35;;
10170;SDS011;5127;50.922;6.988;2024-03-29T12:08:24;0.32;;;0.20;;
10170;SDS011;5127;50.922;6.988;2024-03-29T12:10:51;0.20;;;0.20;;
10170;SDS011;5127;50.922;6.988;2024-03-29T12:13:18;0.15;;;0.15;;
10170;SDS011;5127;50.922;6.988;2024-03-29T12:15:46;0.47;;;0.20;;
10170;SDS011;5127;50.922;6.988;2024-03-29T12:18:14;0.13;;;0.13;;
10170;SDS011;5127;50.922;6.988;2024-03-29T12:20:42;0.17;;;0.17;;
10170;SDS011;5127;50.922;6.988;2024-03-29T12:23:12;0.20;;;0.20;;
10170;SDS011;5127;50.922;6.988;2024-03-29T12:25:40;0.47;;;0.20;;
10170;SDS011;5127;50.922;6.988;2024-03-29T12:28:08;0.20;;;0.20;;
10170;SDS011;5127;50.922;6.988;2024-03-29T12:30:37;0.30;;;0.10;;
10170;SDS011;5127;50.922;6.988;2024-03-29T12:33:07;0.10;;;0.10;;
10170;SDS011;5127;50.922;6.988;2024-03-29T12:35:37;0.20;;;0.20;;
10170;SDS011;5127;50.922;6.988;2024-03-29T12:38:05;0.10;;;0.10;;
10170;SDS011;5127;50.922;6.988;2024-03-29T12:40:33;0.20;;;0.20;;
10170;SDS011;5127;50.922;6.988;2024-03-29T12:43:03;0.20;;;0.20;;
10170;SDS011;5127;50.922;6.988;2024-03-29T12:45:33;0.30;;;0.20;;
10170;SDS011;5127;50.922;6.988;2024-03-29T12:48:00;0.30;;;0.30;;
10170;SDS011;5127;50.922;6.988;2024-03-29T12:50:28;1.02;;;0.35;;
10170;SDS011;5127;50.922;6.988;2024-03-29T12:52:59;0.60;;;0.20;;
10170;SDS011;5127;50.922;6.988;2024-03-29T12:55:28;0.30;;;0.30;;
10170;SDS011;5127;50.922;6.988;2024-03-29T12:57:57;0.45;;;0.30;;
10170;SDS011;5127;50.922;6.988;2024-03-29T13:00:26;0.22;;;0.20;;
10170;SDS011;5127;50.922;6.988;2024-03-29T13:02:53;0.52;;;0.30;;
10170;SDS011;5127;50.922;6.988;2024-03-29T13:05:21;0.40;;;0.40;;
10170;SDS011;5127;50.922;6.988;2024-03-29T13:07:48;0.30;;;0.30;;
10170;SDS011;5127;50.922;6.988;2024-03-29T13:10:17;0.30;;;0.30;;
10170;SDS011;5127;50.922;6.988;2024-03-29T13:12:46;0.30;;;0.30;;
10170;SDS011;5127;50.922;6.988;2024-03-29T13:15:16;0.30;;;0.30;;
10170;SDS011;5127;50.922;6.988;2024-03-29T13:17:46;0.20;;;0.20;;
10170;SDS011;5127;50.922;6.988;2024-03-29T13:20:15;0.82;;;0.30;;
10170;SDS011;5127;50.922;6.988;2024-03-29T13:22:43;0.30;;;0.30;;
10170;SDS011;5127;50.922;6.988;2024-03-29T13:25:12;0.20;;;0.20;;
10170;SDS011;5127;50.922;6.988;2024-03-29T13:27:41;1.67;;;0.32;;
10170;SDS011;5127;50.922;6.988;2024-03-29T13:30:09;0.40;;;0.40;;
10170;SDS011;5127;50.922;6.988;2024-03-29T13:32:38;0.30;;;0.28;;
10170;SDS011;5127;50.922;6.988;2024-03-29T13:35:06;0.50;;;0.50;;
10170;SDS011;5127;50.922;6.988;2024-03-29T13:37:36;0.60;;;0.32;;
10170;SDS011;5127;50.922;6.988;2024-03-29T13:40:05;0.50;;;0.50;;
10170;SDS011;5127;50.922;6.988;2024-03-29T13:42:33;0.40;;;0.40;;
10170;SDS011;5127;50.922;6.988;2024-03-29T13:45:02;0.47;;;0.30;;
10170;SDS011;5127;50.922;6.988;2024-03-29T13:47:31;0.25;;;0.25;;
10170;SDS011;5127;50.922;6.988;2024-03-29T13:49:59;0.45;;;0.45;;
10170;SDS011;5127;50.922;6.988;2024-03-29T13:52:26;0.98;;;0.98;;
10170;SDS011;5127;50.922;6.988;2024-03-29T13:54:54;0.32;;;0.32;;
10170;SDS011;5127;50.922;6.988;2024-03-29T13:57:21;0.80;;;0.30;;
10170;SDS011;5127;50.922;6.988;2024-03-29T13:59:48;0.20;;;0.20;;
10170;SDS011;5127;50.922;6.988;2024-03-29T14:02:17;1.40;;;0.40;;
10170;SDS011;5127;50.922;6.988;2024-03-29T14:04:46;0.20;;;0.20;;
10170;SDS011;5127;50.922;6.988;2024-03-29T14:07:15;2.58;;;0.30;;
10170;SDS011;5127;50.922;6.988;2024-03-29T14:09:43;1.25;;;1.15;;
10170;SDS011;5127;50.922;6.988;2024-03-29T14:12:11;4.38;;;3.13;;
10170;SDS011;5127;50.922;6.988;2024-03-29T14:17:41;0.65;;;0.65;;
10170;SDS011;5127;50.922;6.988;2024-03-29T14:20:09;0.77;;;0.60;;
10170;SDS011;5127;50.922;6.988;2024-03-29T14:22:37;0.50;;;0.50;;
10170;SDS011;5127;50.922;6.988;2024-03-29T14:25:05;0.30;;;0.30;;
10170;SDS011;5127;50.922;6.988;2024-03-29T14:27:36;0.80;;;0.30;;
10170;SDS011;5127;50.922;6.988;2024-03-29T14:30:12;0.35;;;0.28;;
10170;SDS011;5127;50.922;6.988;2024-03-29T14:32:45;0.20;;;0.20;;
10170;SDS011;5127;50.922;6.988;2024-03-29T14:35:13;0.40;;;0.30;;
10170;SDS011;5127;50.922;6.988;2024-03-29T14:37:41;0.47;;;0.25;;
10170;SDS011;5127;50.922;6.988;2024-03-29T14:40:09;0.28;;;0.20;;
10170;SDS011;5127;50.922;6.988;2024-03-29T14:42:38;0.30;;;0.30;;
10170;SDS011;5127;50.922;6.988;2024-03-29T14:45:06;0.30;;;0.30;;
10170;SDS011;5127;50.922;6.988;2024-03-29T14:47:36;0.30;;;0.30;;
10170;SDS011;5127;50.922;6.988;2024-03-29T14:50:05;1.08;;;0.30;;
10170;SDS011;5127;50.922;6.988;2024-03-29T14:52:33;0.30;;;0.30;;
10170;SDS011;5127;50.922;6.988;2024-03-29T14:55:01;0.65;;;0.30;;
10170;SDS011;5127;50.922;6.988;2024-03-29T14:57:28;0.40;;;0.30;;
10170;SDS011;5127;50.922;6.988;2024-03-29T14:59:55;0.68;;;0.40;;
10170;SDS011;5127;50.922;6.988;2024-03-29T15:02:23;0.52;;;0.43;;
10170;SDS011;5127;50.922;6.988;2024-03-29T15:04:50;0.50;;;0.40;;
10170;SDS011;5127;50.922;6.988;2024-03-29T15:07:20;0.32;;;0.28;;
10170;SDS011;5127;50.922;6.988;2024-03-29T15:09:49;0.30;;;0.30;;